createdAt,value
2023-01-22T00:01:52.001Z,5.68
2023-01-22T00:06:55.584Z,5.30
2023-01-22T00:12:01.687Z,5.78
2023-01-22T00:17:05.311Z,5.50
2023-01-22T00:22:10.689Z,5.43
2023-01-22T00:27:15.615Z,5.80
2023-01-22T00:32:19.181Z,5.40
2023-01-22T00:37:22.874Z,5.20
2023-01-22T00:42:27.884Z,5.25
2023-01-22T00:47:31.631Z,5.22
2023-01-22T00:52:37.746Z,5.45
2023-01-22T00:57:42.658Z,5.40
2023-01-22T01:03:00.225Z,5.10
2023-01-22T01:08:04.074Z,5.13
2023-01-22T01:13:08.986Z,5.50
2023-01-22T01:18:14.299Z,5.05
2023-01-22T01:23:18.009Z,5.10
2023-01-22T01:28:24.843Z,4.85
2023-01-22T01:33:28.482Z,4.97
2023-01-22T01:38:33.845Z,4.70
2023-01-22T01:43:38.914Z,4.20
2023-01-22T01:48:49.142Z,4.70
2023-01-22T01:53:53.180Z,4.13
2023-01-22T01:59:06.352Z,4.45
2023-01-22T02:04:10.298Z,4.60
2023-01-22T02:09:14.800Z,4.60
2023-01-22T02:14:25.605Z,4.38
2023-01-22T02:19:29.443Z,4.93
2023-01-22T02:24:34.770Z,4.55
2023-01-22T02:29:39.940Z,4.07
2023-01-22T02:34:46.930Z,4.45
2023-01-22T02:39:51.846Z,4.43
2023-01-22T02:44:55.585Z,4.20
2023-01-22T02:49:59.968Z,4.00
2023-01-22T02:55:06.174Z,3.95
2023-01-22T03:00:12.647Z,4.00
2023-01-22T03:05:17.580Z,3.88
2023-01-22T03:10:22.909Z,3.92
2023-01-22T03:15:44.056Z,3.85
2023-01-22T03:21:05.298Z,3.70
2023-01-22T03:26:10.764Z,3.95
2023-01-22T03:31:16.047Z,3.75
2023-01-22T03:36:19.796Z,3.78
2023-01-22T03:41:29.301Z,3.90
2023-01-22T03:46:34.805Z,3.70
2023-01-22T03:51:39.463Z,3.75
2023-01-22T03:56:44.931Z,3.20
2023-01-22T04:01:58.705Z,3.70
2023-01-22T04:07:02.460Z,3.33
2023-01-22T04:12:08.142Z,3.78
2023-01-22T04:17:12.211Z,3.40
2023-01-22T04:22:36.134Z,3.50
2023-01-22T04:27:41.513Z,3.53
2023-01-22T04:32:46.740Z,3.00
2023-01-22T04:38:01.086Z,3.20
2023-01-22T04:43:09.100Z,3.28
2023-01-22T04:48:15.693Z,3.10
2023-01-22T04:53:22.237Z,3.20
2023-01-22T04:58:27.311Z,3.13
2023-01-22T05:03:34.022Z,3.00
2023-01-22T05:08:39.154Z,3.10
2023-01-22T05:13:44.310Z,3.00
2023-01-22T05:18:48.176Z,3.08
2023-01-22T05:23:51.974Z,3.20
2023-01-22T05:28:56.847Z,3.28
2023-01-22T05:34:07.906Z,3.10
2023-01-22T05:39:11.879Z,2.95
2023-01-22T05:44:17.176Z,2.90
2023-01-22T05:49:26.516Z,2.90
2023-01-22T05:54:32.979Z,2.80
2023-01-22T05:59:38.527Z,3.15
2023-01-22T06:04:44.891Z,3.08
2023-01-22T06:09:59.151Z,3.10
2023-01-22T06:15:04.372Z,2.85
2023-01-22T06:20:11.396Z,2.72
2023-01-22T06:25:15.163Z,2.67
2023-01-22T06:30:40.140Z,3.00
2023-01-22T06:35:43.901Z,2.80
2023-01-22T06:40:53.255Z,2.50
2023-01-22T06:45:58.459Z,2.80
2023-01-22T06:51:34.367Z,2.55
2023-01-22T06:56:38.137Z,2.40
2023-01-22T07:01:43.781Z,2.15
2023-01-22T07:06:47.395Z,2.30
2023-01-22T07:11:51.213Z,2.25
2023-01-22T07:16:58.033Z,2.40
2023-01-22T07:22:01.625Z,2.40
2023-01-22T07:27:05.288Z,2.60
2023-01-22T07:32:10.198Z,2.25
2023-01-22T07:37:13.704Z,2.30
2023-01-22T07:42:17.215Z,2.05
2023-01-22T07:47:22.149Z,2.30
2023-01-22T07:52:25.729Z,2.20
2023-01-22T07:57:29.227Z,1.98
2023-01-22T08:02:34.105Z,2.22
2023-01-22T08:07:37.811Z,2.13
2023-01-22T08:12:42.405Z,2.00
2023-01-22T08:17:51.209Z,2.17
2023-01-22T08:22:59.551Z,2.20
2023-01-22T08:28:05.107Z,2.40
2023-01-22T08:33:10.803Z,2.20
2023-01-22T08:38:14.286Z,2.05
2023-01-22T08:43:17.932Z,2.00
2023-01-22T08:48:22.973Z,2.10
2023-01-22T08:53:26.640Z,2.00
2023-01-22T08:58:30.362Z,2.15
2023-01-22T09:03:35.253Z,2.10
2023-01-22T09:08:39.007Z,2.00
2023-01-22T09:13:42.511Z,2.00
2023-01-22T09:18:47.397Z,1.90
2023-01-22T09:23:51.018Z,2.20
2023-01-22T09:28:54.566Z,2.10
2023-01-22T09:34:00.853Z,3.00
2023-01-22T09:39:04.716Z,4.28
2023-01-22T09:44:16.169Z,5.05
2023-01-22T09:49:26.496Z,5.68
2023-01-22T09:54:32.099Z,5.70
2023-01-22T09:59:49.736Z,5.60
2023-01-22T10:05:04.103Z,5.28
2023-01-22T10:10:22.272Z,4.45
2023-01-22T10:15:26.644Z,4.30
2023-01-22T10:20:32.416Z,3.97
2023-01-22T10:25:35.965Z,3.65
2023-01-22T10:30:48.634Z,3.50
2023-01-22T10:35:57.767Z,3.05
2023-01-22T10:41:04.822Z,2.88
2023-01-22T10:46:21.866Z,2.80
2023-01-22T10:51:33.583Z,2.63
2023-01-22T10:56:40.851Z,2.45
2023-01-22T11:01:44.889Z,2.20
2023-01-22T11:06:55.037Z,2.25
2023-01-22T11:12:07.949Z,2.30
2023-01-22T11:17:26.845Z,2.33
2023-01-22T11:22:38.287Z,2.10
2023-01-22T11:28:08.568Z,2.00
2023-01-22T11:33:33.783Z,2.00
2023-01-22T11:38:51.189Z,1.90
2023-01-22T11:44:41.594Z,1.95
2023-01-22T11:50:07.245Z,2.03
2023-01-22T11:55:48.004Z,2.15
2023-01-22T12:01:10.028Z,2.00
2023-01-22T12:07:01.944Z,1.92
2023-01-22T12:12:29.757Z,1.77
2023-01-22T12:23:00.936Z,1.77
2023-01-22T12:28:16.752Z,2.00
2023-01-22T12:33:24.949Z,1.95
2023-01-22T12:38:43.423Z,2.05
2023-01-22T12:43:54.136Z,2.10
2023-01-22T12:49:07.691Z,2.30
2023-01-22T12:54:32.484Z,2.10
2023-01-22T12:59:49.432Z,2.35
2023-01-22T13:04:53.609Z,2.28
2023-01-22T13:10:03.710Z,2.30
2023-01-22T13:15:21.469Z,2.30
2023-01-22T13:20:27.188Z,2.15
2023-01-22T13:25:34.229Z,2.10
2023-01-22T13:30:39.672Z,2.57
2023-01-22T13:35:45.451Z,2.30
2023-01-22T13:40:55.759Z,2.20
2023-01-22T13:46:01.364Z,2.30
2023-01-22T13:51:11.853Z,2.40
2023-01-22T13:56:18.341Z,2.50
2023-01-22T14:01:33.710Z,2.75
2023-01-22T14:06:49.650Z,3.67
2023-01-22T14:11:53.368Z,4.40
2023-01-22T14:16:58.382Z,4.20
2023-01-22T14:22:01.911Z,4.20
2023-01-22T14:27:05.735Z,4.10
2023-01-22T14:32:10.714Z,4.18
2023-01-22T14:37:17.225Z,4.10
2023-01-22T14:42:21.039Z,4.03
2023-01-22T14:47:26.151Z,3.80
2023-01-22T14:52:29.941Z,4.50
2023-01-22T14:57:33.829Z,4.00
2023-01-22T15:02:41.678Z,3.65
2023-01-22T15:07:45.471Z,3.70
2023-01-22T15:12:51.356Z,4.20
2023-01-22T15:17:58.184Z,3.47
2023-01-22T15:23:01.986Z,3.60
2023-01-22T15:28:06.172Z,3.85
2023-01-22T15:33:11.043Z,3.70
2023-01-22T15:38:14.714Z,3.60
2023-01-22T15:43:18.273Z,3.30
2023-01-22T15:48:23.182Z,3.90
2023-01-22T15:53:26.787Z,3.45
2023-01-22T15:58:30.411Z,3.50
2023-01-22T16:03:35.432Z,3.70
2023-01-22T16:08:39.077Z,3.65
2023-01-22T16:13:43.605Z,3.55
2023-01-22T16:18:50.651Z,3.78
2023-01-22T16:23:57.631Z,3.33
2023-01-22T16:29:05.618Z,3.50
2023-01-22T16:39:21.298Z,3.40
2023-01-22T16:44:27.212Z,3.50
2023-01-22T16:49:35.008Z,3.58
2023-01-22T16:54:41.362Z,3.10
2023-01-22T16:59:44.937Z,3.50
2023-01-22T17:04:49.860Z,3.47
2023-01-22T17:09:53.520Z,3.13
2023-01-22T17:14:57.072Z,2.95
2023-01-22T17:20:02.160Z,3.08
2023-01-22T17:25:07.825Z,3.22
2023-01-22T17:30:13.887Z,3.08
2023-01-22T17:35:19.318Z,3.20
2023-01-22T17:40:23.165Z,3.15
2023-01-22T17:45:26.947Z,3.05
2023-01-22T17:50:32.496Z,3.00
2023-01-22T17:55:37.944Z,3.08
2023-01-22T18:00:41.467Z,2.97
2023-01-22T18:05:46.399Z,3.10
2023-01-22T18:10:50.157Z,3.00
2023-01-22T18:15:54.112Z,2.83
2023-01-22T18:20:59.176Z,3.20
2023-01-22T18:26:07.057Z,2.65
2023-01-22T18:31:14.461Z,2.60
2023-01-22T18:36:23.088Z,2.50
2023-01-22T18:41:28.165Z,2.60
2023-01-22T18:46:36.942Z,2.70
2023-01-22T18:51:44.600Z,2.95
2023-01-22T18:56:48.610Z,3.00
2023-01-22T19:01:52.299Z,2.63
2023-01-22T19:06:57.390Z,2.58
2023-01-22T19:12:00.944Z,2.50
2023-01-22T19:17:06.423Z,2.80
2023-01-22T19:22:11.336Z,2.60
2023-01-22T19:27:15.090Z,2.58
2023-01-22T19:32:26.904Z,2.30
2023-01-22T19:37:32.574Z,2.55
2023-01-22T19:42:36.683Z,2.70
2023-01-22T19:47:40.225Z,2.60
2023-01-22T19:52:45.180Z,2.40
2023-01-22T19:57:48.824Z,3.50
2023-01-22T20:02:52.488Z,3.95
2023-01-22T20:07:59.435Z,4.70
2023-01-22T20:13:03.101Z,3.87
2023-01-22T20:18:07.317Z,3.83
2023-01-22T20:23:12.445Z,4.00
2023-01-22T20:28:16.340Z,3.97
2023-01-22T20:33:20.021Z,4.07
2023-01-22T20:38:25.453Z,3.70
2023-01-22T20:43:29.672Z,3.60
2023-01-22T20:48:34.331Z,3.50
2023-01-22T20:53:39.383Z,3.58
2023-01-22T20:58:43.452Z,3.70
2023-01-22T21:03:49.141Z,3.38
2023-01-22T21:08:56.999Z,3.28
2023-01-22T21:19:12.473Z,3.57
2023-01-22T21:24:18.050Z,3.40
2023-01-22T21:29:24.668Z,3.28
2023-01-22T21:34:28.407Z,3.58
2023-01-22T21:39:33.363Z,3.55
2023-01-22T21:44:54.503Z,3.85
2023-01-22T21:49:58.515Z,3.72
2023-01-22T21:55:03.435Z,3.85
2023-01-22T22:00:09.833Z,4.20
2023-01-22T22:05:13.633Z,3.80
2023-01-22T22:10:20.422Z,3.80
2023-01-22T22:15:24.130Z,3.72
2023-01-22T22:20:29.093Z,3.90
2023-01-22T22:25:35.673Z,3.80
2023-01-22T22:30:39.238Z,3.83
2023-01-22T22:35:46.051Z,3.60
2023-01-22T22:41:02.640Z,3.55
2023-01-22T22:46:09.918Z,3.80
2023-01-22T22:51:18.169Z,3.90
2023-01-22T22:56:24.004Z,3.30
2023-01-22T23:01:28.510Z,3.45
2023-01-22T23:06:35.620Z,3.30
2023-01-22T23:11:47.454Z,3.80
2023-01-22T23:16:51.353Z,3.53
2023-01-22T23:21:58.149Z,3.20
2023-01-22T23:27:03.111Z,3.65
2023-01-22T23:32:07.469Z,3.53
2023-01-22T23:37:11.150Z,3.40
2023-01-22T23:42:16.103Z,3.17
2023-01-22T23:47:19.996Z,3.20
2023-01-22T23:52:23.670Z,3.30
2023-01-22T23:57:28.848Z,3.35
